CheckWX is a tool to help pilots better visualize weather data.  It is not intended as a substitute for an official pre-flight weather briefing.

15:33:46 UTC

KIRK METAR
Kirksville Regional Airport
Kirksville, Missouri, USA
Current

39 mins ago

KIRK 261455Z AUTO 16009KT 10SM FEW009 21/19 A3008 RMK AO2 SLP186 60003 T02060189 51004 $
Observed
May-26 @ 14:55 UTC
Wind
  • 160° at 9 KTS
Visibility
10 SM
Flight Rules
VFR
Cloud Levels
  • Few at 900' AGL
Temperature
21°C / 70°F
Dewpoint
19°C / 66°F
Humidity
88%
Altimeter
30.08" Hg
Pressure
1018.62 hPa
Previous

1 hour ago

KIRK 261409Z AUTO 13008KT 10SM SCT006 BKN085 BKN110 19/18 A3008 RMK AO2 T01940183 $
Observed
May-26 @ 14:09 UTC
Wind
  • 130° at 8 KTS
Visibility
10 SM
Flight Rules
VFR
Cloud Levels
  • Scattered at 600' AGL
  • Broken at 8,500' AGL
  • Broken at 11,000' AGL
Temperature
19°C / 66°F
Dewpoint
18°C / 64°F
Humidity
94%
Altimeter
30.08" Hg
Pressure
1018.62 hPa
Previous

2 hours ago

KIRK 261355Z AUTO 11004KT 10SM SCT006 BKN027 19/19 A3008 RMK AO2 SLP184 T01940189 $
Observed
May-26 @ 13:55 UTC
Wind
  • 110° at 4 KTS
Visibility
10 SM
Flight Rules
MVFR
Cloud Levels
  • Scattered at 600' AGL
  • Broken at 2,700' AGL
Temperature
19°C / 66°F
Dewpoint
19°C / 66°F
Humidity
100%
Altimeter
30.08" Hg
Pressure
1018.62 hPa